sensor_id;sensor_type;location;lat;lon;timestamp;pressure;altitude;pressure_sealevel;temperature;humidity
67840;BME280;54636;51.684;5.142;2023-09-19T00:00:13;100795.16;;;14.61;100.00
67840;BME280;54636;51.684;5.142;2023-09-19T00:02:38;100797.97;;;14.50;100.00
67840;BME280;54636;51.684;5.142;2023-09-19T00:05:04;100803.25;;;14.42;100.00
67840;BME280;54636;51.684;5.142;2023-09-19T00:07:30;100804.25;;;14.34;100.00
67840;BME280;54636;51.684;5.142;2023-09-19T00:09:55;100792.91;;;14.24;100.00
67840;BME280;54636;51.684;5.142;2023-09-19T00:12:21;100802.41;;;14.17;100.00
67840;BME280;54636;51.684;5.142;2023-09-19T00:14:46;100805.94;;;14.07;100.00
67840;BME280;54636;51.684;5.142;2023-09-19T00:17:13;100789.88;;;13.87;100.00
67840;BME280;54636;51.684;5.142;2023-09-19T00:19:41;100809.47;;;13.91;100.00
67840;BME280;54636;51.684;5.142;2023-09-19T00:22:08;100808.03;;;13.78;100.00
67840;BME280;54636;51.684;5.142;2023-09-19T00:24:33;100814.72;;;13.77;100.00
67840;BME280;54636;51.684;5.142;2023-09-19T00:26:58;100823.44;;;13.70;100.00
67840;BME280;54636;51.684;5.142;2023-09-19T00:29:25;100803.69;;;13.47;100.00
67840;BME280;54636;51.684;5.142;2023-09-19T00:31:55;100799.25;;;13.39;100.00
67840;BME280;54636;51.684;5.142;2023-09-19T00:34:21;100835.13;;;13.65;100.00
67840;BME280;54636;51.684;5.142;2023-09-19T00:36:46;100839.56;;;13.68;100.00
67840;BME280;54636;51.684;5.142;2023-09-19T00:39:11;100831.16;;;13.66;100.00
67840;BME280;54636;51.684;5.142;2023-09-19T00:41:37;100830.63;;;13.73;100.00
67840;BME280;54636;51.684;5.142;2023-09-19T00:44:03;100850.72;;;13.81;100.00
67840;BME280;54636;51.684;5.142;2023-09-19T00:46:30;100845.00;;;13.85;100.00
67840;BME280;54636;51.684;5.142;2023-09-19T00:48:56;100857.88;;;13.90;100.00
67840;BME280;54636;51.684;5.142;2023-09-19T00:51:22;100857.88;;;13.90;100.00
67840;BME280;54636;51.684;5.142;2023-09-19T00:53:51;100866.06;;;13.96;100.00
67840;BME280;54636;51.684;5.142;2023-09-19T00:56:18;100846.00;;;13.82;100.00
67840;BME280;54636;51.684;5.142;2023-09-19T00:58:46;100868.56;;;13.88;100.00
67840;BME280;54636;51.684;5.142;2023-09-19T01:01:15;100872.03;;;13.89;100.00
67840;BME280;54636;51.684;5.142;2023-09-19T01:03:42;100864.09;;;13.85;100.00
67840;BME280;54636;51.684;5.142;2023-09-19T01:06:08;100875.28;;;13.76;100.00
67840;BME280;54636;51.684;5.142;2023-09-19T01:08:34;100848.31;;;13.56;100.00
67840;BME280;54636;51.684;5.142;2023-09-19T01:11:06;100864.94;;;13.58;100.00
67840;BME280;54636;51.684;5.142;2023-09-19T01:17:06;100868.94;;;13.45;100.00
67840;BME280;54636;51.684;5.142;2023-09-19T01:22:37;100860.03;;;13.17;100.00
67840;BME280;54636;51.684;5.142;2023-09-19T01:28:24;100871.41;;;13.15;100.00
67840;BME280;54636;51.684;5.142;2023-09-19T01:30:58;100870.16;;;13.05;100.00
67840;BME280;54636;51.684;5.142;2023-09-19T01:33:25;100885.03;;;13.04;100.00
67840;BME280;54636;51.684;5.142;2023-09-19T01:35:51;100879.34;;;13.02;100.00
67840;BME280;54636;51.684;5.142;2023-09-19T01:38:18;100880.84;;;12.98;100.00
67840;BME280;54636;51.684;5.142;2023-09-19T01:40:50;100890.00;;;12.95;100.00
67840;BME280;54636;51.684;5.142;2023-09-19T01:43:41;100881.34;;;12.91;100.00
67840;BME280;54636;51.684;5.142;2023-09-19T01:46:41;100880.84;;;12.86;100.00
67840;BME280;54636;51.684;5.142;2023-09-19T01:54:12;100868.66;;;12.65;100.00
67840;BME280;54636;51.684;5.142;2023-09-19T01:57:16;100890.97;;;12.80;100.00
67840;BME280;54636;51.684;5.142;2023-09-19T01:59:50;100884.03;;;12.79;100.00
67840;BME280;54636;51.684;5.142;2023-09-19T02:02:20;100836.16;;;12.34;100.00
67840;BME280;54636;51.684;5.142;2023-09-19T02:04:48;100879.56;;;12.65;100.00
67840;BME280;54636;51.684;5.142;2023-09-19T02:07:14;100888.72;;;12.68;100.00
67840;BME280;54636;51.684;5.142;2023-09-19T02:09:40;100865.41;;;12.56;100.00
67840;BME280;54636;51.684;5.142;2023-09-19T02:12:09;100868.88;;;12.56;100.00
67840;BME280;54636;51.684;5.142;2023-09-19T02:14:34;100870.13;;;12.61;100.00
67840;BME280;54636;51.684;5.142;2023-09-19T02:17:02;100868.16;;;12.61;100.00
67840;BME280;54636;51.684;5.142;2023-09-19T02:19:28;100883.28;;;12.68;100.00
67840;BME280;54636;51.684;5.142;2023-09-19T02:21:55;100896.13;;;12.62;100.00
67840;BME280;54636;51.684;5.142;2023-09-19T02:24:20;100886.97;;;12.53;100.00
67840;BME280;54636;51.684;5.142;2023-09-19T02:26:45;100888.69;;;12.51;100.00
67840;BME280;54636;51.684;5.142;2023-09-19T02:29:12;100892.16;;;12.51;100.00
67840;BME280;54636;51.684;5.142;2023-09-19T02:31:38;100859.16;;;12.22;100.00
67840;BME280;54636;51.684;5.142;2023-09-19T02:34:04;100879.50;;;12.32;100.00
67840;BME280;54636;51.684;5.142;2023-09-19T02:36:31;100883.94;;;12.35;100.00
67840;BME280;54636;51.684;5.142;2023-09-19T02:38:57;100895.56;;;12.30;100.00
67840;BME280;54636;51.684;5.142;2023-09-19T02:41:22;100881.41;;;12.14;100.00
67840;BME280;54636;51.684;5.142;2023-09-19T02:43:48;100902.75;;;12.27;100.00
67840;BME280;54636;51.684;5.142;2023-09-19T02:46:13;100861.78;;;11.99;100.00
67840;BME280;54636;51.684;5.142;2023-09-19T02:48:39;100898.28;;;12.24;100.00
67840;BME280;54636;51.684;5.142;2023-09-19T02:51:04;100889.34;;;12.18;100.00
67840;BME280;54636;51.684;5.142;2023-09-19T02:53:30;100894.81;;;12.24;100.00
67840;BME280;54636;51.684;5.142;2023-09-19T02:55:57;100886.09;;;12.14;100.00
67840;BME280;54636;51.684;5.142;2023-09-19T02:58:22;100904.47;;;12.25;100.00
67840;BME280;54636;51.684;5.142;2023-09-19T03:00:50;100897.28;;;12.27;100.00
67840;BME280;54636;51.684;5.142;2023-09-19T03:03:17;100900.25;;;12.24;100.00
67840;BME280;54636;51.684;5.142;2023-09-19T03:05:42;100898.28;;;12.24;100.00
67840;BME280;54636;51.684;5.142;2023-09-19T03:08:13;100878.69;;;12.14;100.00
67840;BME280;54636;51.684;5.142;2023-09-19T03:10:40;100893.56;;;12.25;100.00
67840;BME280;54636;51.684;5.142;2023-09-19T03:13:05;100899.03;;;12.25;100.00
67840;BME280;54636;51.684;5.142;2023-09-19T03:15:35;100902.75;;;12.27;100.00
67840;BME280;54636;51.684;5.142;2023-09-19T03:18:02;100895.81;;;12.26;100.00
67840;BME280;54636;51.684;5.142;2023-09-19T03:20:28;100896.53;;;12.21;100.00
67840;BME280;54636;51.684;5.142;2023-09-19T03:22:53;100891.09;;;12.21;100.00
67840;BME280;54636;51.684;5.142;2023-09-19T03:25:18;100884.63;;;12.18;100.00
67840;BME280;54636;51.684;5.142;2023-09-19T03:27:44;100885.13;;;12.17;100.00
67840;BME280;54636;51.684;5.142;2023-09-19T03:30:10;100888.59;;;12.17;100.00
67840;BME280;54636;51.684;5.142;2023-09-19T03:32:46;100886.88;;;12.20;100.00
67840;BME280;54636;51.684;5.142;2023-09-19T03:35:12;100885.91;;;12.23;100.00
67840;BME280;54636;51.684;5.142;2023-09-19T03:37:42;100888.88;;;12.25;100.00
67840;BME280;54636;51.684;5.142;2023-09-19T03:40:09;100884.16;;;12.26;100.00
67840;BME280;54636;51.684;5.142;2023-09-19T03:42:38;100865.56;;;12.18;100.00
67840;BME280;54636;51.684;5.142;2023-09-19T03:45:04;100879.97;;;12.25;100.00
67840;BME280;54636;51.684;5.142;2023-09-19T03:47:31;100891.38;;;12.34;100.00
67840;BME280;54636;51.684;5.142;2023-09-19T03:49:56;100890.13;;;12.35;100.00
67840;BME280;54636;51.684;5.142;2023-09-19T03:52:22;100879.47;;;12.26;100.00
67840;BME280;54636;51.684;5.142;2023-09-19T03:54:47;100872.56;;;12.31;100.00
67840;BME280;54636;51.684;5.142;2023-09-19T03:57:12;100887.66;;;12.32;100.00
67840;BME280;54636;51.684;5.142;2023-09-19T03:59:41;100866.56;;;12.21;100.00
67840;BME280;54636;51.684;5.142;2023-09-19T04:02:07;100886.41;;;12.27;100.00
67840;BME280;54636;51.684;5.142;2023-09-19T04:04:37;100858.34;;;12.04;100.00
67840;BME280;54636;51.684;5.142;2023-09-19T04:07:02;100879.47;;;12.26;100.00
67840;BME280;54636;51.684;5.142;2023-09-19T04:09:27;100880.97;;;12.27;100.00
67840;BME280;54636;51.684;5.142;2023-09-19T04:11:53;100884.66;;;12.24;100.00
67840;BME280;54636;51.684;5.142;2023-09-19T04:14:18;100902.50;;;12.25;100.00
67840;BME280;54636;51.684;5.142;2023-09-19T04:16:44;100900.75;;;12.22;100.00
67840;BME280;54636;51.684;5.142;2023-09-19T04:19:09;100893.53;;;12.13;100.00
67840;BME280;54636;51.684;5.142;2023-09-19T04:21:34;100909.66;;;12.23;100.00
67840;BME280;54636;51.684;5.142;2023-09-19T04:24:00;100918.09;;;12.25;100.00
67840;BME280;54636;51.684;5.142;2023-09-19T04:26:25;100915.13;;;12.28;100.00
67840;BME280;54636;51.684;5.142;2023-09-19T04:28:51;100925.28;;;12.28;100.00
67840;BME280;54636;51.684;5.142;2023-09-19T04:31:16;100914.59;;;12.18;100.00
67840;BME280;54636;51.684;5.142;2023-09-19T04:33:43;100934.97;;;12.34;100.00
67840;BME280;54636;51.684;5.142;2023-09-19T04:36:09;100943.88;;;12.40;100.00
67840;BME280;54636;51.684;5.142;2023-09-19T04:38:35;100924.28;;;12.31;100.00
67840;BME280;54636;51.684;5.142;2023-09-19T04:41:00;100940.63;;;12.36;100.00
67840;BME280;54636;51.684;5.142;2023-09-19T04:43:26;100948.81;;;12.36;100.00
67840;BME280;54636;51.684;5.142;2023-09-19T04:45:51;100949.34;;;12.46;100.00
67840;BME280;54636;51.684;5.142;2023-09-19T04:48:23;100967.94;;;12.47;100.00
67840;BME280;54636;51.684;5.142;2023-09-19T04:50:54;100953.81;;;12.49;100.00
67840;BME280;54636;51.684;5.142;2023-09-19T04:53:19;100953.59;;;12.52;100.00
67840;BME280;54636;51.684;5.142;2023-09-19T04:55:50;100925.03;;;12.37;100.00
67840;BME280;54636;51.684;5.142;2023-09-19T04:58:15;100951.84;;;12.55;100.00
67840;BME280;54636;51.684;5.142;2023-09-19T05:00:43;100952.06;;;12.46;100.00
67840;BME280;54636;51.684;5.142;2023-09-19T05:03:08;100945.63;;;12.49;100.00
67840;BME280;54636;51.684;5.142;2023-09-19T05:05:34;100957.06;;;12.53;100.00
67840;BME280;54636;51.684;5.142;2023-09-19T05:08:00;100962.25;;;12.51;100.00
67840;BME280;54636;51.684;5.142;2023-09-19T05:10:25;100924.28;;;12.31;100.00
67840;BME280;54636;51.684;5.142;2023-09-19T05:12:53;100923.56;;;12.30;100.00
67840;BME280;54636;51.684;5.142;2023-09-19T05:15:18;100958.78;;;12.56;100.00
67840;BME280;54636;51.684;5.142;2023-09-19T05:17:51;100953.56;;;12.47;100.00
67840;BME280;54636;51.684;5.142;2023-09-19T05:20:17;100962.25;;;12.51;100.00
67840;BME280;54636;51.684;5.142;2023-09-19T05:23:00;100963.72;;;12.52;100.00
67840;BME280;54636;51.684;5.142;2023-09-19T05:25:30;100963.25;;;12.53;100.00
67840;BME280;54636;51.684;5.142;2023-09-19T05:27:57;100959.78;;;12.59;100.00
67840;BME280;54636;51.684;5.142;2023-09-19T05:30:23;100968.72;;;12.59;100.00
67840;BME280;54636;51.684;5.142;2023-09-19T05:32:48;100937.91;;;12.36;100.00
67840;BME280;54636;51.684;5.142;2023-09-19T05:35:14;100979.63;;;12.59;100.00
67840;BME280;54636;51.684;5.142;2023-09-19T05:37:39;100974.16;;;12.59;100.00
67840;BME280;54636;51.684;5.142;2023-09-19T05:40:05;100966.22;;;12.56;100.00
67840;BME280;54636;51.684;5.142;2023-09-19T05:42:34;100949.59;;;12.48;100.00
67840;BME280;54636;51.684;5.142;2023-09-19T05:45:00;100958.56;;;12.60;100.00
67840;BME280;54636;51.684;5.142;2023-09-19T05:47:25;100923.31;;;12.34;100.00
67840;BME280;54636;51.684;5.142;2023-09-19T05:49:50;100938.44;;;12.46;100.00
67840;BME280;54636;51.684;5.142;2023-09-19T05:52:17;100966.25;;;12.67;100.00
67840;BME280;54636;51.684;5.142;2023-09-19T05:54:43;100970.75;;;12.75;100.00
67840;BME280;54636;51.684;5.142;2023-09-19T05:57:08;100954.63;;;12.66;100.00
67840;BME280;54636;51.684;5.142;2023-09-19T05:59:43;100968.28;;;12.77;100.00
67840;BME280;54636;51.684;5.142;2023-09-19T06:05:30;100973.50;;;12.86;100.00
67840;BME280;54636;51.684;5.142;2023-09-19T06:07:57;100944.50;;;12.78;100.00
67840;BME280;54636;51.684;5.142;2023-09-19T06:10:26;100970.81;;;12.92;100.00
67840;BME280;54636;51.684;5.142;2023-09-19T06:12:53;100967.34;;;12.97;100.00
67840;BME280;54636;51.684;5.142;2023-09-19T06:15:20;100969.06;;;12.95;100.00
67840;BME280;54636;51.684;5.142;2023-09-19T06:17:53;100971.56;;;12.98;100.00
67840;BME280;54636;51.684;5.142;2023-09-19T06:20:20;100977.00;;;13.04;100.00
67840;BME280;54636;51.684;5.142;2023-09-19T06:22:47;100972.28;;;13.04;100.00
67840;BME280;54636;51.684;5.142;2023-09-19T06:25:14;100985.75;;;13.25;100.00
67840;BME280;54636;51.684;5.142;2023-09-19T06:27:53;100975.28;;;13.12;100.00
67840;BME280;54636;51.684;5.142;2023-09-19T06:30:23;100998.41;;;13.33;100.00
67840;BME280;54636;51.684;5.142;2023-09-19T06:32:51;101008.09;;;13.40;100.00
67840;BME280;54636;51.684;5.142;2023-09-19T06:35:20;100968.38;;;13.16;100.00
67840;BME280;54636;51.684;5.142;2023-09-19T06:37:45;100962.91;;;13.16;100.00
67840;BME280;54636;51.684;5.142;2023-09-19T06:40:12;100986.50;;;13.42;100.00
67840;BME280;54636;51.684;5.142;2023-09-19T06:42:43;101010.31;;;13.47;100.00
67840;BME280;54636;51.684;5.142;2023-09-19T06:45:12;101004.63;;;13.62;100.00
67840;BME280;54636;51.684;5.142;2023-09-19T06:47:39;100994.44;;;13.57;100.00
67840;BME280;54636;51.684;5.142;2023-09-19T06:50:05;101002.63;;;13.62;100.00
67840;BME280;54636;51.684;5.142;2023-09-19T06:52:32;101006.09;;;13.68;100.00
67840;BME280;54636;51.684;5.142;2023-09-19T06:54:58;101003.09;;;13.72;100.00
67840;BME280;54636;51.684;5.142;2023-09-19T06:57:23;100977.56;;;13.58;100.00
67840;BME280;54636;51.684;5.142;2023-09-19T06:59:49;100997.41;;;13.75;100.00
67840;BME280;54636;51.684;5.142;2023-09-19T07:02:15;100993.66;;;13.78;100.00
67840;BME280;54636;51.684;5.142;2023-09-19T07:04:40;101005.34;;;13.84;100.00
67840;BME280;54636;51.684;5.142;2023-09-19T07:07:06;101000.38;;;13.89;100.00
67840;BME280;54636;51.684;5.142;2023-09-19T07:09:34;100990.44;;;13.80;100.00
67840;BME280;54636;51.684;5.142;2023-09-19T07:11:59;101014.00;;;14.05;100.00
67840;BME280;54636;51.684;5.142;2023-09-19T07:14:26;100987.19;;;13.93;100.00
67840;BME280;54636;51.684;5.142;2023-09-19T07:16:51;101021.19;;;14.14;100.00
67840;BME280;54636;51.684;5.142;2023-09-19T07:19:17;101018.44;;;14.25;100.00
67840;BME280;54636;51.684;5.142;2023-09-19T07:21:42;100996.31;;;14.23;100.00
67840;BME280;54636;51.684;5.142;2023-09-19T07:24:08;100994.78;;;14.33;100.00
67840;BME280;54636;51.684;5.142;2023-09-19T07:26:34;101006.69;;;14.47;100.00
67840;BME280;54636;51.684;5.142;2023-09-19T07:28:59;101005.66;;;14.56;100.00
67840;BME280;54636;51.684;5.142;2023-09-19T07:31:27;101008.38;;;14.61;100.00
67840;BME280;54636;51.684;5.142;2023-09-19T07:33:53;101005.63;;;14.67;100.00
67840;BME280;54636;51.684;5.142;2023-09-19T07:36:19;100967.41;;;14.56;100.00
67840;BME280;54636;51.684;5.142;2023-09-19T07:38:45;101011.75;;;14.90;100.00
67840;BME280;54636;51.684;5.142;2023-09-19T07:41:10;101002.81;;;14.83;100.00
67840;BME280;54636;51.684;5.142;2023-09-19T07:43:39;101005.72;;;14.97;100.00
67840;BME280;54636;51.684;5.142;2023-09-19T07:46:08;100985.81;;;14.96;100.00
67840;BME280;54636;51.684;5.142;2023-09-19T07:48:36;101019.66;;;15.34;100.00
67840;BME280;54636;51.684;5.142;2023-09-19T07:51:04;100998.78;;;15.31;100.00
67840;BME280;54636;51.684;5.142;2023-09-19T07:53:30;101022.28;;;15.51;100.00
67840;BME280;54636;51.684;5.142;2023-09-19T07:56:05;101019.19;;;15.66;100.00
67840;BME280;54636;51.684;5.142;2023-09-19T07:58:32;101004.13;;;15.48;100.00
67840;BME280;54636;51.684;5.142;2023-09-19T08:01:08;101003.97;;;15.70;100.00
67840;BME280;54636;51.684;5.142;2023-09-19T08:03:34;101016.31;;;15.82;100.00
67840;BME280;54636;51.684;5.142;2023-09-19T08:06:00;101012.66;;;15.99;100.00
67840;BME280;54636;51.684;5.142;2023-09-19T08:08:27;101020.88;;;15.99;100.00
67840;BME280;54636;51.684;5.142;2023-09-19T08:10:56;101025.28;;;16.07;100.00
67840;BME280;54636;51.684;5.142;2023-09-19T08:13:25;101025.69;;;16.17;100.00
67840;BME280;54636;51.684;5.142;2023-09-19T08:15:51;101025.28;;;16.07;100.00
67840;BME280;54636;51.684;5.142;2023-09-19T08:18:18;101023.75;;;16.12;100.00
67840;BME280;54636;51.684;5.142;2023-09-19T08:20:49;101029.97;;;16.12;100.00
67840;BME280;54636;51.684;5.142;2023-09-19T08:23:15;101038.88;;;16.19;100.00
67840;BME280;54636;51.684;5.142;2023-09-19T08:25:42;101013.41;;;16.24;100.00
67840;BME280;54636;51.684;5.142;2023-09-19T08:28:07;101037.13;;;16.40;100.00
67840;BME280;54636;51.684;5.142;2023-09-19T08:30:39;101035.66;;;16.39;100.00
67840;BME280;54636;51.684;5.142;2023-09-19T08:33:05;101026.09;;;16.45;100.00
67840;BME280;54636;51.684;5.142;2023-09-19T08:35:32;101034.72;;;16.55;100.00
67840;BME280;54636;51.684;5.142;2023-09-19T08:37:57;101027.13;;;16.67;100.00
67840;BME280;54636;51.684;5.142;2023-09-19T08:40:23;101022.97;;;16.98;99.64
67840;BME280;54636;51.684;5.142;2023-09-19T08:42:52;101026.44;;;17.17;98.98
67840;BME280;54636;51.684;5.142;2023-09-19T08:45:19;101028.50;;;17.30;99.17
67840;BME280;54636;51.684;5.142;2023-09-19T08:47:53;101024.72;;;17.33;97.55
67840;BME280;54636;51.684;5.142;2023-09-19T08:50:33;101014.09;;;17.42;94.56
67840;BME280;54636;51.684;5.142;2023-09-19T08:53:08;101007.03;;;17.60;94.75
67840;BME280;54636;51.684;5.142;2023-09-19T08:55:36;101012.19;;;17.83;92.60
67840;BME280;54636;51.684;5.142;2023-09-19T08:58:04;101018.44;;;17.96;93.18
67840;BME280;54636;51.684;5.142;2023-09-19T09:00:31;101012.00;;;17.94;91.26
67840;BME280;54636;51.684;5.142;2023-09-19T09:02:58;101030.50;;;17.93;90.99
67840;BME280;54636;51.684;5.142;2023-09-19T09:05:24;101028.59;;;18.01;91.43
67840;BME280;54636;51.684;5.142;2023-09-19T09:07:52;100987.97;;;17.68;90.01
67840;BME280;54636;51.684;5.142;2023-09-19T09:10:21;100981.31;;;17.76;91.03
67840;BME280;54636;51.684;5.142;2023-09-19T09:12:52;101019.84;;;18.03;90.89
67840;BME280;54636;51.684;5.142;2023-09-19T09:15:22;101013.59;;;18.02;91.73
67840;BME280;54636;51.684;5.142;2023-09-19T09:17:49;101005.38;;;18.16;91.80
67840;BME280;54636;51.684;5.142;2023-09-19T09:20:16;100993.94;;;18.12;88.78
67840;BME280;54636;51.684;5.142;2023-09-19T09:22:56;100996.06;;;18.19;88.52
67840;BME280;54636;51.684;5.142;2023-09-19T09:25:54;101006.91;;;18.24;89.05
67840;BME280;54636;51.684;5.142;2023-09-19T09:28:26;100990.22;;;18.22;87.92
67840;BME280;54636;51.684;5.142;2023-09-19T09:30:52;100999.19;;;18.49;88.64
67840;BME280;54636;51.684;5.142;2023-09-19T09:33:18;100994.63;;;18.78;87.44
67840;BME280;54636;51.684;5.142;2023-09-19T09:35:55;101005.81;;;19.14;84.40
67840;BME280;54636;51.684;5.142;2023-09-19T09:38:30;101007.22;;;19.07;82.14
67840;BME280;54636;51.684;5.142;2023-09-19T09:41:08;100991.06;;;18.91;82.64
67840;BME280;54636;51.684;5.142;2023-09-19T09:43:37;101007.16;;;18.87;84.01
67840;BME280;54636;51.684;5.142;2023-09-19T09:46:17;100999.06;;;18.81;84.12
67840;BME280;54636;51.684;5.142;2023-09-19T09:51:42;100995.16;;;18.97;84.45
67840;BME280;54636;51.684;5.142;2023-09-19T09:54:29;101015.41;;;19.21;81.61
67840;BME280;54636;51.684;5.142;2023-09-19T09:57:05;101008.97;;;19.18;81.18
67840;BME280;54636;51.684;5.142;2023-09-19T09:59:55;101010.56;;;19.14;83.43
67840;BME280;54636;51.684;5.142;2023-09-19T10:02:28;101000.09;;;19.12;83.33
67840;BME280;54636;51.684;5.142;2023-09-19T10:07:55;101011.41;;;19.42;81.83
67840;BME280;54636;51.684;5.142;2023-09-19T10:10:44;101003.00;;;19.48;79.91
67840;BME280;54636;51.684;5.142;2023-09-19T10:13:20;100997.16;;;19.52;79.44
67840;BME280;54636;51.684;5.142;2023-09-19T10:15:49;101014.34;;;19.86;77.62
67840;BME280;54636;51.684;5.142;2023-09-19T10:18:22;101016.50;;;19.80;79.35
67840;BME280;54636;51.684;5.142;2023-09-19T10:20:48;101001.44;;;19.81;77.91
67840;BME280;54636;51.684;5.142;2023-09-19T10:23:20;100998.50;;;20.08;78.34
67840;BME280;54636;51.684;5.142;2023-09-19T10:25:51;100982.25;;;19.96;75.60
67840;BME280;54636;51.684;5.142;2023-09-19T10:28:18;100993.00;;;20.15;75.10
67840;BME280;54636;51.684;5.142;2023-09-19T10:30:56;100990.59;;;20.12;75.79
67840;BME280;54636;51.684;5.142;2023-09-19T10:33:24;100990.97;;;20.16;76.96
67840;BME280;54636;51.684;5.142;2023-09-19T10:35:53;100989.13;;;20.47;74.32
67840;BME280;54636;51.684;5.142;2023-09-19T10:38:24;100972.75;;;20.41;73.07
67840;BME280;54636;51.684;5.142;2023-09-19T10:40:51;100970.59;;;20.55;72.61
67840;BME280;54636;51.684;5.142;2023-09-19T10:43:19;100976.38;;;20.80;72.53
67840;BME280;54636;51.684;5.142;2023-09-19T10:45:47;100971.75;;;20.67;70.71
67840;BME280;54636;51.684;5.142;2023-09-19T10:48:15;100973.91;;;20.53;71.74
67840;BME280;54636;51.684;5.142;2023-09-19T10:53:20;100938.38;;;20.50;69.98
67840;BME280;54636;51.684;5.142;2023-09-19T10:55:53;100964.72;;;20.58;71.45
67840;BME280;54636;51.684;5.142;2023-09-19T10:58:31;100951.22;;;20.39;71.33
67840;BME280;54636;51.684;5.142;2023-09-19T11:01:02;100939.19;;;20.29;69.63
67840;BME280;54636;51.684;5.142;2023-09-19T11:03:41;100941.38;;;20.23;70.61
67840;BME280;54636;51.684;5.142;2023-09-19T11:06:18;100936.13;;;20.41;70.79
67840;BME280;54636;51.684;5.142;2023-09-19T11:11:43;100934.78;;;20.34;70.64
67840;BME280;54636;51.684;5.142;2023-09-19T11:30:49;100907.97;;;21.31;63.42
67840;BME280;54636;51.684;5.142;2023-09-19T11:33:19;100904.28;;;21.21;64.21
67840;BME280;54636;51.684;5.142;2023-09-19T11:36:05;100901.13;;;21.32;64.27
67840;BME280;54636;51.684;5.142;2023-09-19T11:46:52;100887.06;;;21.68;66.08
67840;BME280;54636;51.684;5.142;2023-09-19T11:49:19;100899.03;;;21.71;62.85
67840;BME280;54636;51.684;5.142;2023-09-19T11:51:51;100898.09;;;21.76;62.73
67840;BME280;54636;51.684;5.142;2023-09-19T11:54:17;100903.59;;;21.91;63.70
67840;BME280;54636;51.684;5.142;2023-09-19T11:56:54;100898.78;;;21.99;63.22
67840;BME280;54636;51.684;5.142;2023-09-19T11:59:21;100875.34;;;22.08;62.22
67840;BME280;54636;51.684;5.142;2023-09-19T12:01:57;100893.63;;;22.04;62.34
67840;BME280;54636;51.684;5.142;2023-09-19T12:04:36;100900.63;;;22.05;64.73
67840;BME280;54636;51.684;5.142;2023-09-19T12:07:09;100914.47;;;22.05;63.77
67840;BME280;54636;51.684;5.142;2023-09-19T12:09:42;100892.03;;;21.78;63.12
67840;BME280;54636;51.684;5.142;2023-09-19T12:12:10;100911.03;;;21.51;62.05
67840;BME280;54636;51.684;5.142;2023-09-19T12:14:38;100917.53;;;21.30;66.89
67840;BME280;54636;51.684;5.142;2023-09-19T12:17:04;100902.59;;;21.11;64.92
67840;BME280;54636;51.684;5.142;2023-09-19T12:19:30;100913.25;;;20.99;68.51
67840;BME280;54636;51.684;5.142;2023-09-19T12:22:02;100916.38;;;20.88;67.50
67840;BME280;54636;51.684;5.142;2023-09-19T12:24:32;100910.47;;;20.84;67.11
67840;BME280;54636;51.684;5.142;2023-09-19T12:27:05;100897.97;;;21.05;67.09
67840;BME280;54636;51.684;5.142;2023-09-19T12:29:41;100900.00;;;21.20;66.94
67840;BME280;54636;51.684;5.142;2023-09-19T12:32:07;100902.78;;;21.35;66.37
67840;BME280;54636;51.684;5.142;2023-09-19T12:34:33;100906.47;;;21.23;67.29
67840;BME280;54636;51.684;5.142;2023-09-19T12:39:52;100907.19;;;21.08;68.63
67840;BME280;54636;51.684;5.142;2023-09-19T12:42:25;100884.72;;;21.12;66.98
67840;BME280;54636;51.684;5.142;2023-09-19T12:44:57;100865.78;;;20.78;66.25
67840;BME280;54636;51.684;5.142;2023-09-19T12:47:27;100912.34;;;20.96;66.37
67840;BME280;54636;51.684;5.142;2023-09-19T12:50:14;100903.66;;;20.85;67.61
67840;BME280;54636;51.684;5.142;2023-09-19T12:55:26;100903.84;;;20.87;68.64
67840;BME280;54636;51.684;5.142;2023-09-19T12:57:58;100910.84;;;20.88;69.03
67840;BME280;54636;51.684;5.142;2023-09-19T13:00:39;100900.88;;;20.62;68.70
67840;BME280;54636;51.684;5.142;2023-09-19T13:08:18;100915.25;;;20.24;70.14
67840;BME280;54636;51.684;5.142;2023-09-19T13:11:14;100909.78;;;20.32;70.23
67840;BME280;54636;51.684;5.142;2023-09-19T13:13:43;100902.03;;;20.30;70.81
67840;BME280;54636;51.684;5.142;2023-09-19T13:16:19;100913.53;;;20.42;70.00
67840;BME280;54636;51.684;5.142;2023-09-19T13:18:52;100923.66;;;20.47;69.78
67840;BME280;54636;51.684;5.142;2023-09-19T13:21:34;100913.56;;;20.57;69.66
67840;BME280;54636;51.684;5.142;2023-09-19T13:24:21;100929.22;;;20.62;69.46
67840;BME280;54636;51.684;5.142;2023-09-19T13:26:46;100897.00;;;20.50;68.48
67840;BME280;54636;51.684;5.142;2023-09-19T13:29:12;100898.63;;;20.45;69.35
67840;BME280;54636;51.684;5.142;2023-09-19T13:31:37;100903.47;;;20.67;69.91
67840;BME280;54636;51.684;5.142;2023-09-19T13:34:07;100885.44;;;20.59;69.02
67840;BME280;54636;51.684;5.142;2023-09-19T13:36:32;100913.06;;;20.89;68.34
67840;BME280;54636;51.684;5.142;2023-09-19T13:38:58;100898.88;;;20.85;67.48
67840;BME280;54636;51.684;5.142;2023-09-19T13:41:25;100906.63;;;20.87;69.37
67840;BME280;54636;51.684;5.142;2023-09-19T13:43:51;100872.34;;;20.52;68.11
67840;BME280;54636;51.684;5.142;2023-09-19T13:46:17;100894.13;;;20.78;68.27
67840;BME280;54636;51.684;5.142;2023-09-19T13:48:50;100898.34;;;20.71;69.33
67840;BME280;54636;51.684;5.142;2023-09-19T13:51:15;100902.94;;;20.84;67.47
67840;BME280;54636;51.684;5.142;2023-09-19T13:53:41;100900.38;;;20.79;68.05
67840;BME280;54636;51.684;5.142;2023-09-19T13:56:06;100898.72;;;20.76;69.71